Time;durP1;ratioP1;P1;durP2;ratioP2;P2;SDS_P1;SDS_P2;PMS_P1;PMS_P2;Temp;Humidity;BMP_temperature;BMP_pressure;BME280_temperature;BME280_humidity;BME280_pressure;Samples;Min_cycle;Max_cycle;Signal;HPM_P1;HPM_P2
2023/07/17 00:00:17;;;;;;;0.00;0.00;;;17.30;99.90;;;;;;5024359;28;20044;-71
2023/07/17 00:02:43;;;;;;;0.63;0.55;;;17.30;99.90;;;;;;5034144;28;20052;-71
2023/07/17 00:05:13;;;;;;;33.17;1.85;;;17.30;99.90;;;;;;5027054;28;20055;-71
2023/07/17 00:07:39;;;;;;;0.00;0.00;;;17.30;99.90;;;;;;5027386;28;20408;-71
2023/07/17 00:10:07;;;;;;;2.97;1.02;;;17.30;99.90;;;;;;5043439;28;20033;-71
2023/07/17 00:12:32;;;;;;;0.03;0.03;;;17.30;99.90;;;;;;5046358;28;20235;-71
2023/07/17 00:14:58;;;;;;;0.00;0.00;;;17.40;99.90;;;;;;5026866;28;20140;-71
2023/07/17 00:17:24;;;;;;;0.20;0.20;;;17.40;99.90;;;;;;5041557;28;20076;-71
2023/07/17 00:19:54;;;;;;;0.00;0.00;;;17.30;99.90;;;;;;5021356;28;20124;-71
2023/07/17 00:22:20;;;;;;;0.82;0.80;;;17.30;99.90;;;;;;5025974;28;20037;-71
2023/07/17 00:24:46;;;;;;;0.00;0.00;;;17.30;99.90;;;;;;5020443;28;20086;-71
2023/07/17 00:27:12;;;;;;;0.00;0.00;;;17.30;99.90;;;;;;5025629;28;20092;-71
2023/07/17 00:29:37;;;;;;;0.73;0.73;;;17.30;99.90;;;;;;5038749;28;20123;-71
2023/07/17 00:32:03;;;;;;;0.10;0.10;;;17.30;99.90;;;;;;5038239;28;20187;-71
2023/07/17 00:34:29;;;;;;;0.00;0.00;;;17.30;99.90;;;;;;5025563;28;20464;-71
2023/07/17 00:36:54;;;;;;;0.10;0.10;;;17.30;99.90;;;;;;5023445;28;20034;-71
2023/07/17 00:39:20;;;;;;;0.10;0.10;;;17.30;99.90;;;;;;5021303;28;20042;-72
2023/07/17 00:41:48;;;;;;;0.10;0.10;;;17.30;99.90;;;;;;5028360;28;20404;-71
2023/07/17 00:44:14;;;;;;;0.00;0.00;;;17.30;99.90;;;;;;5028455;28;20045;-71
2023/07/17 00:46:40;;;;;;;0.73;0.73;;;17.30;99.90;;;;;;5027519;28;20048;-71
2023/07/17 00:49:07;;;;;;;0.08;0.08;;;17.30;99.90;;;;;;5020354;28;20637;-71
2023/07/17 00:51:33;;;;;;;1.77;0.85;;;17.30;99.90;;;;;;5037526;28;20052;-71
2023/07/17 00:54:00;;;;;;;0.10;0.10;;;17.30;99.90;;;;;;5042533;28;20028;-71
2023/07/17 00:56:29;;;;;;;0.00;0.00;;;17.20;99.90;;;;;;5020398;28;20049;-71
2023/07/17 00:58:56;;;;;;;0.00;0.00;;;17.20;99.90;;;;;;5031247;28;20036;-71
2023/07/17 01:01:22;;;;;;;0.00;0.00;;;17.20;99.90;;;;;;5029184;28;20041;-71
2023/07/17 01:03:47;;;;;;;0.00;0.00;;;17.10;99.90;;;;;;5034485;28;20053;-70
2023/07/17 01:06:13;;;;;;;2.40;0.90;;;17.10;99.90;;;;;;5028570;28;20136;-71
2023/07/17 01:08:38;;;;;;;0.00;0.00;;;17.10;99.90;;;;;;5037370;28;20143;-71
2023/07/17 01:11:05;;;;;;;0.20;0.20;;;17.00;99.90;;;;;;5027450;28;20048;-71
2023/07/17 01:13:30;;;;;;;0.15;0.15;;;17.00;99.90;;;;;;5030660;28;20045;-71
2023/07/17 01:15:56;;;;;;;2.45;0.85;;;16.90;99.90;;;;;;5026637;28;20048;-71
2023/07/17 01:18:21;;;;;;;0.00;0.00;;;16.80;99.90;;;;;;5011250;28;20044;-71
2023/07/17 01:20:48;;;;;;;0.00;0.00;;;16.80;99.90;;;;;;5011326;28;20045;-71
2023/07/17 01:23:14;;;;;;;0.03;0.03;;;16.80;99.90;;;;;;5044004;28;20041;-71
2023/07/17 01:25:40;;;;;;;0.00;0.00;;;16.70;99.90;;;;;;5016164;28;20056;-71
2023/07/17 01:28:05;;;;;;;0.00;0.00;;;16.70;99.90;;;;;;5035604;28;20037;-71
2023/07/17 01:30:31;;;;;;;0.43;0.43;;;16.70;99.90;;;;;;5036353;28;20055;-72
2023/07/17 01:32:56;;;;;;;0.00;0.00;;;16.60;99.90;;;;;;5020039;28;20052;-70
2023/07/17 01:35:23;;;;;;;1.52;0.68;;;16.70;99.90;;;;;;5035187;28;20107;-71
2023/07/17 01:37:49;;;;;;;0.10;0.10;;;16.60;99.90;;;;;;5037468;28;20061;-72
2023/07/17 01:40:16;;;;;;;0.00;0.00;;;16.60;99.90;;;;;;5019098;28;20048;-71
2023/07/17 01:42:41;;;;;;;0.00;0.00;;;16.50;99.90;;;;;;5017122;28;20041;-70
2023/07/17 01:45:07;;;;;;;0.00;0.00;;;16.50;99.90;;;;;;5044359;28;20420;-71
2023/07/17 01:47:33;;;;;;;0.57;0.22;;;16.60;99.90;;;;;;5031140;28;20034;-72
2023/07/17 01:49:59;;;;;;;0.08;0.08;;;16.60;99.90;;;;;;5015485;28;20064;-71
2023/07/17 01:52:24;;;;;;;0.20;0.20;;;16.60;99.90;;;;;;5030062;28;20113;-71
2023/07/17 01:54:50;;;;;;;0.77;0.77;;;16.60;99.90;;;;;;5040526;28;20060;-71
2023/07/17 01:57:16;;;;;;;3.35;0.75;;;16.50;99.90;;;;;;5035825;28;20037;-71
2023/07/17 01:59:42;;;;;;;0.28;0.28;;;16.50;99.90;;;;;;5044431;28;20558;-71
2023/07/17 02:02:07;;;;;;;0.00;0.00;;;16.50;99.90;;;;;;5026091;28;20049;-71
2023/07/17 02:04:33;;;;;;;0.00;0.00;;;16.50;99.90;;;;;;5031080;28;20516;-71
2023/07/17 02:06:58;;;;;;;0.00;0.00;;;16.50;99.90;;;;;;5048948;28;20041;-71
2023/07/17 02:09:24;;;;;;;0.50;0.50;;;16.50;99.90;;;;;;5001604;28;20560;-71
2023/07/17 02:11:49;;;;;;;0.00;0.00;;;16.50;99.90;;;;;;5040793;28;20075;-71
2023/07/17 02:14:15;;;;;;;0.00;0.00;;;16.50;99.90;;;;;;5017305;28;20045;-71
2023/07/17 02:16:41;;;;;;;0.57;0.57;;;16.60;99.90;;;;;;5040254;28;20037;-71
2023/07/17 02:19:06;;;;;;;3.65;0.50;;;16.60;99.90;;;;;;5032538;28;20049;-71
2023/07/17 02:21:32;;;;;;;2.28;0.85;;;16.60;99.90;;;;;;5042204;28;20495;-71
2023/07/17 02:23:58;;;;;;;4.65;1.17;;;16.60;99.90;;;;;;5016537;28;20045;-71
2023/07/17 02:26:24;;;;;;;0.00;0.00;;;16.60;99.90;;;;;;5039036;28;20071;-71
2023/07/17 02:28:50;;;;;;;0.00;0.00;;;16.60;99.90;;;;;;5041317;28;20046;-71
2023/07/17 02:31:15;;;;;;;0.10;0.10;;;16.60;99.90;;;;;;5040457;28;20398;-71
2023/07/17 02:33:41;;;;;;;0.00;0.00;;;16.60;99.90;;;;;;5039756;28;20056;-71
2023/07/17 02:36:07;;;;;;;0.10;0.10;;;16.60;99.90;;;;;;5042925;28;20397;-70
2023/07/17 02:38:32;;;;;;;0.00;0.00;;;16.60;99.90;;;;;;5035934;28;20041;-71
2023/07/17 02:40:58;;;;;;;0.50;0.50;;;16.50;99.90;;;;;;5022602;28;20045;-71
2023/07/17 02:43:23;;;;;;;0.47;0.47;;;16.50;99.90;;;;;;5046412;28;20041;-71
2023/07/17 02:45:49;;;;;;;0.00;0.00;;;16.50;99.90;;;;;;5036312;28;20432;-71
2023/07/17 02:48:15;;;;;;;0.22;0.22;;;16.50;99.90;;;;;;5021025;28;20045;-71
2023/07/17 02:50:40;;;;;;;0.00;0.00;;;16.40;99.90;;;;;;5039165;28;20045;-70
2023/07/17 02:53:06;;;;;;;0.03;0.03;;;16.50;99.90;;;;;;5034161;28;20042;-70
2023/07/17 02:55:31;;;;;;;0.00;0.00;;;16.50;99.90;;;;;;5035801;28;20049;-71
2023/07/17 02:57:57;;;;;;;0.00;0.00;;;16.40;99.90;;;;;;5018539;28;20032;-70
2023/07/17 03:00:23;;;;;;;0.05;0.05;;;16.40;99.90;;;;;;5036955;28;20045;-70
2023/07/17 03:02:48;;;;;;;0.43;0.28;;;16.40;99.90;;;;;;5032339;28;20037;-70
2023/07/17 03:05:14;;;;;;;0.00;0.00;;;16.30;99.90;;;;;;5035792;28;20036;-70
2023/07/17 03:07:42;;;;;;;0.00;0.00;;;16.30;99.90;;;;;;5015227;28;20041;-70
2023/07/17 03:10:08;;;;;;;0.00;0.00;;;16.30;99.90;;;;;;5026627;28;20443;-70
2023/07/17 03:12:34;;;;;;;0.05;0.05;;;16.30;99.90;;;;;;5042102;28;20132;-70
2023/07/17 03:15:00;;;;;;;0.28;0.28;;;16.30;99.90;;;;;;5024231;28;20136;-69
2023/07/17 03:17:25;;;;;;;0.65;0.57;;;16.30;99.90;;;;;;5032058;28;20067;-70
2023/07/17 03:19:51;;;;;;;0.00;0.00;;;16.30;99.90;;;;;;5042422;28;20670;-70
2023/07/17 03:22:18;;;;;;;0.05;0.05;;;16.30;99.90;;;;;;5015851;28;20044;-70
2023/07/17 03:24:44;;;;;;;0.00;0.00;;;16.20;99.90;;;;;;5043583;28;20380;-70
2023/07/17 03:27:10;;;;;;;0.10;0.10;;;16.20;99.90;;;;;;5032184;28;20068;-70
2023/07/17 03:29:35;;;;;;;0.20;0.20;;;16.20;99.90;;;;;;5042437;28;20786;-70
2023/07/17 03:32:01;;;;;;;0.00;0.00;;;16.20;99.90;;;;;;5023569;28;20058;-70
2023/07/17 03:34:26;;;;;;;0.20;0.20;;;16.20;99.90;;;;;;5043067;28;20060;-70
2023/07/17 03:36:53;;;;;;;0.00;0.00;;;16.20;99.90;;;;;;5040232;28;20073;-70
2023/07/17 03:39:18;;;;;;;0.00;0.00;;;16.20;99.90;;;;;;5016271;28;20128;-70
2023/07/17 03:41:44;;;;;;;0.00;0.00;;;16.20;99.90;;;;;;5043093;28;20116;-70
2023/07/17 03:44:09;;;;;;;0.70;0.70;;;16.20;99.90;;;;;;5038065;28;20053;-70
2023/07/17 03:46:35;;;;;;;0.00;0.00;;;16.20;99.90;;;;;;5017885;28;20476;-70
2023/07/17 03:49:01;;;;;;;0.00;0.00;;;16.20;99.90;;;;;;5037998;28;20049;-70
2023/07/17 03:51:26;;;;;;;0.00;0.00;;;16.20;99.90;;;;;;5017904;28;20049;-70
2023/07/17 03:53:52;;;;;;;0.55;0.55;;;16.20;99.90;;;;;;5038357;28;20047;-69
2023/07/17 03:56:17;;;;;;;12.75;0.30;;;16.20;99.90;;;;;;5041824;28;20052;-70
2023/07/17 03:58:43;;;;;;;0.03;0.03;;;16.20;99.90;;;;;;5033635;28;20103;-69
2023/07/17 04:01:09;;;;;;;0.00;0.00;;;16.30;99.90;;;;;;5042448;28;20030;-69
2023/07/17 04:03:34;;;;;;;0.60;0.60;;;16.20;99.90;;;;;;5013268;28;20193;-69
2023/07/17 04:06:00;;;;;;;0.55;0.55;;;16.30;99.90;;;;;;5026622;28;20041;-70
2023/07/17 04:08:25;;;;;;;1.75;1.48;;;16.20;99.90;;;;;;5036348;28;20064;-69
2023/07/17 04:10:51;;;;;;;14.40;0.90;;;16.30;99.90;;;;;;5022169;28;20037;-70
2023/07/17 04:13:17;;;;;;;0.00;0.00;;;16.20;99.90;;;;;;5033891;28;20041;-70
2023/07/17 04:15:43;;;;;;;1.08;0.75;;;16.30;99.90;;;;;;5037101;28;20040;-70
2023/07/17 04:18:09;;;;;;;0.90;0.80;;;16.20;99.90;;;;;;5009158;28;20473;-70
2023/07/17 04:20:38;;;;;;;0.10;0.10;;;16.30;99.90;;;;;;5036879;28;20048;-70
2023/07/17 04:23:05;;;;;;;5.05;1.30;;;16.30;99.90;;;;;;5023812;28;20049;-70
2023/07/17 04:25:31;;;;;;;0.08;0.08;;;16.30;99.90;;;;;;5018953;28;20093;-71
2023/07/17 04:27:56;;;;;;;0.10;0.10;;;16.30;99.90;;;;;;5031748;28;20041;-70
2023/07/17 04:30:22;;;;;;;0.90;0.70;;;16.30;99.90;;;;;;5019202;28;20057;-70
2023/07/17 04:32:50;;;;;;;0.10;0.10;;;16.30;99.90;;;;;;5017766;28;20048;-71
2023/07/17 04:35:16;;;;;;;2.40;1.00;;;16.30;99.90;;;;;;5023118;28;20042;-70
2023/07/17 04:37:41;;;;;;;0.00;0.00;;;16.40;99.90;;;;;;5038413;28;20045;-70
2023/07/17 04:40:08;;;;;;;0.10;0.10;;;16.40;99.90;;;;;;5029481;28;20042;-70
2023/07/17 04:42:33;;;;;;;0.38;0.38;;;16.40;99.90;;;;;;5027940;28;20037;-70
2023/07/17 04:44:59;;;;;;;0.00;0.00;;;16.40;99.90;;;;;;5029249;28;20387;-70
2023/07/17 04:47:25;;;;;;;0.13;0.13;;;16.40;99.90;;;;;;5028082;28;20038;-70
2023/07/17 04:49:53;;;;;;;0.77;0.52;;;16.40;99.90;;;;;;5037517;28;20107;-70
2023/07/17 04:52:19;;;;;;;1.75;1.10;;;16.40;99.90;;;;;;5026620;28;20077;-70
2023/07/17 04:54:44;;;;;;;1.38;0.90;;;16.50;99.90;;;;;;5021958;28;20041;-70
2023/07/17 04:57:10;;;;;;;0.15;0.15;;;16.50;99.90;;;;;;5028150;28;20482;-70
2023/07/17 04:59:35;;;;;;;0.43;0.20;;;16.50;99.90;;;;;;5034483;28;20060;-71
2023/07/17 05:02:01;;;;;;;0.38;0.38;;;16.50;99.90;;;;;;5012219;28;20046;-70
2023/07/17 05:04:27;;;;;;;0.55;0.40;;;16.50;99.90;;;;;;5029892;28;20041;-71
2023/07/17 05:06:52;;;;;;;0.20;0.20;;;16.60;99.90;;;;;;5019714;28;20464;-71
2023/07/17 05:09:18;;;;;;;0.00;0.00;;;16.70;99.90;;;;;;5025401;28;20052;-70
2023/07/17 05:11:44;;;;;;;0.20;0.20;;;16.80;99.90;;;;;;5029780;28;20164;-69
2023/07/17 05:14:10;;;;;;;0.00;0.00;;;16.90;99.90;;;;;;5017424;28;20496;-70
2023/07/17 05:16:35;;;;;;;0.43;0.43;;;17.00;99.90;;;;;;5035736;28;20041;-70
2023/07/17 05:19:01;;;;;;;0.30;0.30;;;17.00;99.90;;;;;;5024624;28;20049;-70
2023/07/17 05:21:27;;;;;;;0.10;0.10;;;17.10;99.90;;;;;;5015215;28;20041;-70
2023/07/17 05:23:52;;;;;;;1.25;1.15;;;17.00;99.90;;;;;;5031157;28;20152;-70
2023/07/17 05:26:18;;;;;;;0.45;0.45;;;17.00;99.90;;;;;;5029738;28;20037;-69
2023/07/17 05:28:47;;;;;;;1.30;0.98;;;16.90;99.90;;;;;;5028773;28;20177;-69
2023/07/17 05:31:12;;;;;;;0.28;0.28;;;16.80;99.90;;;;;;5027559;28;20528;-69
2023/07/17 05:33:38;;;;;;;0.17;0.17;;;16.80;99.90;;;;;;5029056;28;20046;-69
2023/07/17 05:36:04;;;;;;;0.22;0.22;;;16.70;99.90;;;;;;5012038;28;20374;-69
2023/07/17 05:38:29;;;;;;;0.00;0.00;;;16.60;99.90;;;;;;5023457;28;20045;-69
2023/07/17 05:41:00;;;;;;;0.00;0.00;;;16.50;99.90;;;;;;5017492;28;20060;-68
2023/07/17 05:43:25;;;;;;;2.80;0.43;;;16.50;99.90;;;;;;5023165;28;20085;-69
2023/07/17 05:45:51;;;;;;;0.43;0.43;;;16.40;99.90;;;;;;5014654;28;20115;-69
2023/07/17 05:48:16;;;;;;;0.00;0.00;;;16.40;99.90;;;;;;5031460;28;20363;-69
2023/07/17 05:50:43;;;;;;;2.63;0.25;;;16.40;99.90;;;;;;5026941;28;20137;-69
2023/07/17 05:53:09;;;;;;;0.00;0.00;;;16.50;99.90;;;;;;5022584;28;20117;-69
2023/07/17 05:55:34;;;;;;;0.82;0.82;;;16.50;99.90;;;;;;5018719;28;20107;-69
2023/07/17 05:58:00;;;;;;;0.00;0.00;;;16.60;99.90;;;;;;5010744;28;20128;-69
2023/07/17 06:00:25;;;;;;;0.20;0.20;;;16.70;99.90;;;;;;5030397;28;20176;-68
2023/07/17 06:02:51;;;;;;;0.00;0.00;;;16.60;99.90;;;;;;5025118;28;20044;-69
2023/07/17 06:05:17;;;;;;;0.00;0.00;;;16.70;99.90;;;;;;5041480;28;20419;-69
2023/07/17 06:07:42;;;;;;;0.30;0.30;;;16.50;99.90;;;;;;5039888;28;20051;-69
2023/07/17 06:10:08;;;;;;;0.00;0.00;;;16.40;99.90;;;;;;5032620;28;20502;-67
2023/07/17 06:12:34;;;;;;;0.80;0.80;;;16.30;99.90;;;;;;5028752;28;20033;-68
2023/07/17 06:15:00;;;;;;;0.00;0.00;;;16.30;99.90;;;;;;5035470;28;20033;-68
2023/07/17 06:17:25;;;;;;;0.00;0.00;;;16.20;99.90;;;;;;5025435;28;20477;-68
2023/07/17 06:19:51;;;;;;;0.40;0.40;;;16.20;99.90;;;;;;5043718;28;20033;-69
2023/07/17 06:22:17;;;;;;;0.00;0.00;;;16.20;99.90;;;;;;5005573;28;20061;-69
2023/07/17 06:24:42;;;;;;;0.00;0.00;;;16.20;99.90;;;;;;5039039;28;20105;-70
2023/07/17 06:27:08;;;;;;;0.00;0.00;;;16.30;99.90;;;;;;5020295;28;20041;-69
2023/07/17 06:29:33;;;;;;;0.00;0.00;;;16.30;99.90;;;;;;5032642;28;20048;-70
2023/07/17 06:31:59;;;;;;;0.85;0.85;;;16.40;99.90;;;;;;5022944;28;20076;-69
2023/07/17 06:34:24;;;;;;;0.15;0.13;;;16.50;99.90;;;;;;5032099;28;20045;-69
2023/07/17 06:36:50;;;;;;;0.00;0.00;;;16.60;99.90;;;;;;5038760;28;20041;-70
2023/07/17 06:39:16;;;;;;;3.20;1.02;;;16.70;99.90;;;;;;5024770;28;20042;-69
2023/07/17 06:41:42;;;;;;;0.13;0.13;;;16.70;99.90;;;;;;5025736;28;20060;-69
2023/07/17 06:44:08;;;;;;;1.10;0.52;;;16.80;99.90;;;;;;5022835;28;20394;-69
2023/07/17 06:46:33;;;;;;;0.00;0.00;;;16.70;99.90;;;;;;5031007;28;20041;-70
2023/07/17 06:48:59;;;;;;;0.00;0.00;;;16.70;99.90;;;;;;5004133;28;20100;-69
2023/07/17 06:51:24;;;;;;;1.55;0.43;;;16.70;99.90;;;;;;5008112;28;20498;-69
2023/07/17 06:53:52;;;;;;;0.17;0.13;;;16.70;99.90;;;;;;5034764;28;20045;-69
2023/07/17 06:56:17;;;;;;;0.00;0.00;;;16.70;99.90;;;;;;5040202;28;20064;-69
2023/07/17 06:58:43;;;;;;;0.00;0.00;;;16.80;99.90;;;;;;5002432;28;20507;-69
2023/07/17 07:01:10;;;;;;;0.00;0.00;;;16.90;99.90;;;;;;5028042;28;20536;-69
2023/07/17 07:03:36;;;;;;;0.28;0.28;;;16.90;99.90;;;;;;5036619;28;20045;-69
2023/07/17 07:06:02;;;;;;;0.00;0.00;;;16.90;99.90;;;;;;5004990;28;20129;-69
2023/07/17 07:08:31;;;;;;;0.00;0.00;;;16.90;99.90;;;;;;5023696;28;20127;-69
2023/07/17 07:11:00;;;;;;;1.08;1.00;;;16.90;99.90;;;;;;5022412;28;20041;-69
2023/07/17 07:13:26;;;;;;;0.00;0.00;;;17.00;99.90;;;;;;5022424;28;20041;-69
2023/07/17 07:15:52;;;;;;;0.00;0.00;;;17.10;99.90;;;;;;5018923;28;20401;-67
2023/07/17 07:18:18;;;;;;;0.10;0.10;;;17.10;99.90;;;;;;5022239;28;20056;-67
2023/07/17 07:20:45;;;;;;;0.10;0.10;;;17.20;99.90;;;;;;5023194;28;20037;-67
2023/07/17 07:23:11;;;;;;;0.25;0.25;;;17.00;99.90;;;;;;5024184;28;20049;-67
2023/07/17 07:25:37;;;;;;;0.00;0.00;;;17.00;99.90;;;;;;5024133;28;20117;-67
2023/07/17 07:28:03;;;;;;;16.33;2.67;;;17.10;99.90;;;;;;5030790;28;20045;-67
2023/07/17 07:30:29;;;;;;;0.00;0.00;;;17.10;99.90;;;;;;5016329;28;20049;-70
2023/07/17 07:32:55;;;;;;;1.52;0.75;;;17.30;99.90;;;;;;5030825;28;20485;-70
2023/07/17 07:35:21;;;;;;;6.50;0.98;;;17.30;99.90;;;;;;5012482;28;20484;-68
2023/07/17 07:37:47;;;;;;;0.00;0.00;;;17.20;99.90;;;;;;5029482;28;20052;-67
2023/07/17 07:40:12;;;;;;;0.20;0.20;;;17.10;99.90;;;;;;5030077;28;20108;-68
2023/07/17 07:42:44;;;;;;;0.00;0.00;;;17.20;99.90;;;;;;5025757;28;20384;-69
2023/07/17 07:45:11;;;;;;;0.00;0.00;;;17.30;99.90;;;;;;5036213;28;20043;-70
2023/07/17 07:47:37;;;;;;;0.00;0.00;;;17.30;99.90;;;;;;5031320;28;20124;-69
2023/07/17 07:50:03;;;;;;;0.10;0.10;;;17.10;99.90;;;;;;5015796;28;20405;-69
2023/07/17 07:52:29;;;;;;;0.00;0.00;;;17.20;99.90;;;;;;5032202;28;20045;-67
2023/07/17 07:54:55;;;;;;;0.00;0.00;;;17.30;99.90;;;;;;5029903;28;20052;-70
2023/07/17 07:57:21;;;;;;;0.25;0.25;;;17.40;99.90;;;;;;5013299;28;20046;-69
2023/07/17 07:59:48;;;;;;;7.88;2.72;;;17.50;99.90;;;;;;5033776;28;20507;-69
2023/07/17 08:02:14;;;;;;;0.10;0.10;;;17.50;99.90;;;;;;5026707;28;20081;-69
2023/07/17 08:04:39;;;;;;;0.00;0.00;;;17.60;99.90;;;;;;5034040;28;20064;-70
2023/07/17 08:07:05;;;;;;;0.00;0.00;;;17.70;99.90;;;;;;5023355;28;20155;-69
2023/07/17 08:09:31;;;;;;;0.00;0.00;;;17.70;99.90;;;;;;5030141;28;20077;-70
2023/07/17 08:11:56;;;;;;;2.00;0.55;;;17.80;99.90;;;;;;5029679;28;20036;-70
2023/07/17 08:14:22;;;;;;;0.10;0.10;;;17.90;99.90;;;;;;5036580;28;20063;-69
2023/07/17 08:16:51;;;;;;;6.93;2.17;;;18.00;99.90;;;;;;5038626;28;20378;-68
2023/07/17 08:19:18;;;;;;;0.47;0.45;;;18.00;99.90;;;;;;5013191;28;20379;-69
2023/07/17 08:21:44;;;;;;;0.15;0.15;;;18.10;99.90;;;;;;5034366;28;20073;-69
2023/07/17 08:24:09;;;;;;;0.17;0.17;;;18.00;99.90;;;;;;5032301;28;20091;-69
2023/07/17 08:26:36;;;;;;;0.93;0.43;;;18.10;99.90;;;;;;5024158;28;20041;-69
2023/07/17 08:29:02;;;;;;;0.20;0.20;;;18.10;99.90;;;;;;5029423;28;20037;-69
2023/07/17 08:31:28;;;;;;;0.10;0.10;;;18.00;99.90;;;;;;5018296;28;20565;-70
2023/07/17 08:33:54;;;;;;;0.00;0.00;;;18.10;99.90;;;;;;5031746;28;20104;-70
2023/07/17 08:36:22;;;;;;;1.88;0.57;;;18.20;99.90;;;;;;5026553;28;20068;-70
2023/07/17 08:38:47;;;;;;;0.38;0.38;;;18.20;99.90;;;;;;5033504;28;20047;-70
2023/07/17 08:41:16;;;;;;;0.22;0.22;;;18.20;99.90;;;;;;5037769;28;20460;-70
2023/07/17 08:43:42;;;;;;;0.30;0.30;;;18.20;99.90;;;;;;5029913;28;20252;-70
2023/07/17 08:46:09;;;;;;;0.00;0.00;;;18.20;99.90;;;;;;5024159;28;20044;-70
2023/07/17 08:48:35;;;;;;;0.43;0.43;;;18.20;99.90;;;;;;5038682;28;20087;-70
2023/07/17 08:51:02;;;;;;;0.15;0.15;;;18.30;99.90;;;;;;5037879;28;20128;-69
2023/07/17 08:53:28;;;;;;;0.20;0.20;;;18.20;99.90;;;;;;5030619;28;20050;-70
2023/07/17 08:55:56;;;;;;;0.00;0.00;;;18.30;99.90;;;;;;5027606;28;20040;-70
2023/07/17 08:58:27;;;;;;;6.03;1.88;;;18.30;99.90;;;;;;5026387;28;20045;-69
2023/07/17 09:00:53;;;;;;;0.00;0.00;;;18.40;99.90;;;;;;5022139;28;20101;-69
2023/07/17 09:03:19;;;;;;;0.25;0.13;;;18.40;99.90;;;;;;5035927;28;20045;-70
2023/07/17 09:05:45;;;;;;;0.00;0.00;;;18.60;99.90;;;;;;5029853;28;20053;-69
2023/07/17 09:08:12;;;;;;;12.65;0.30;;;18.70;99.90;;;;;;5036330;28;20172;-70
2023/07/17 09:10:39;;;;;;;0.10;0.10;;;18.80;99.90;;;;;;5028139;28;20511;-69
2023/07/17 09:13:04;;;;;;;1.08;0.98;;;18.70;99.90;;;;;;5008131;28;20523;-69
2023/07/17 09:15:32;;;;;;;0.20;0.20;;;18.80;99.90;;;;;;5025723;28;20042;-69
2023/07/17 09:17:58;;;;;;;0.20;0.20;;;18.80;99.90;;;;;;5026450;28;20037;-69
2023/07/17 09:20:24;;;;;;;0.52;0.52;;;18.90;99.90;;;;;;5038654;28;20041;-69
2023/07/17 09:22:53;;;;;;;1.35;0.40;;;18.90;99.90;;;;;;5025646;28;20413;-69
2023/07/17 09:25:19;;;;;;;0.10;0.10;;;19.10;99.90;;;;;;5032680;28;20045;-70
2023/07/17 09:27:46;;;;;;;6.40;1.35;;;19.00;99.90;;;;;;5015714;28;20103;-70
2023/07/17 09:30:13;;;;;;;0.00;0.00;;;19.00;99.90;;;;;;5016277;28;20062;-69
2023/07/17 09:32:40;;;;;;;0.55;0.55;;;19.00;99.90;;;;;;5024066;28;20497;-68
2023/07/17 09:35:08;;;;;;;0.00;0.00;;;19.10;99.90;;;;;;5026647;28;20461;-70
2023/07/17 09:37:35;;;;;;;0.00;0.00;;;19.20;99.90;;;;;;5029992;28;20049;-70
2023/07/17 09:40:07;;;;;;;0.20;0.20;;;19.30;99.90;;;;;;5035542;28;20131;-69
2023/07/17 09:42:36;;;;;;;0.00;0.00;;;19.40;99.90;;;;;;5014910;28;20116;-69
2023/07/17 09:45:03;;;;;;;3.70;1.65;;;19.50;99.90;;;;;;5017019;28;20044;-70
2023/07/17 09:47:31;;;;;;;0.00;0.00;;;19.70;99.90;;;;;;5029636;28;20041;-69
2023/07/17 09:49:58;;;;;;;0.47;0.45;;;20.00;99.90;;;;;;5024250;28;20052;-70
2023/07/17 09:52:25;;;;;;;2.20;1.85;;;20.30;99.90;;;;;;5037088;28;20096;-70
2023/07/17 09:54:51;;;;;;;0.00;0.00;;;20.80;99.90;;;;;;5019865;28;20410;-68
2023/07/17 09:57:35;;;;;;;0.00;0.00;;;21.10;99.90;;;;;;5032416;28;20050;-68
2023/07/17 10:00:18;;;;;;;0.00;0.00;;;21.10;99.90;;;;;;5019017;28;20046;-69
2023/07/17 10:03:07;;;;;;;0.15;0.15;;;20.80;99.90;;;;;;5029724;28;20148;-66
2023/07/17 10:05:33;;;;;;;0.10;0.10;;;20.80;99.90;;;;;;5030968;28;20413;-68
2023/07/17 10:08:03;;;;;;;0.10;0.10;;;21.00;99.90;;;;;;5019564;28;20048;-69
2023/07/17 10:10:29;;;;;;;0.00;0.00;;;21.20;99.90;;;;;;5036529;28;20063;-68
2023/07/17 10:12:56;;;;;;;0.00;0.00;;;21.10;99.90;;;;;;5025871;28;20041;-69
2023/07/17 10:15:23;;;;;;;0.10;0.10;;;20.90;99.90;;;;;;5013314;28;20049;-69
2023/07/17 10:17:57;;;;;;;0.00;0.00;;;21.00;99.90;;;;;;5026239;28;20480;-69
2023/07/17 10:20:23;;;;;;;0.30;0.30;;;21.10;99.90;;;;;;5023676;28;20061;-70
2023/07/17 10:22:49;;;;;;;0.00;0.00;;;21.10;99.90;;;;;;5028484;28;20393;-69
2023/07/17 10:25:18;;;;;;;2.58;1.50;;;21.00;99.90;;;;;;5020926;28;20050;-69
2023/07/17 10:27:51;;;;;;;0.15;0.15;;;20.90;99.90;;;;;;5022900;28;20049;-68
2023/07/17 10:30:25;;;;;;;2.40;0.30;;;20.70;99.90;;;;;;5030739;28;20393;-69
2023/07/17 10:33:06;;;;;;;1.95;0.70;;;20.70;99.90;;;;;;5016014;28;20104;-70
2023/07/17 10:35:57;;;;;;;0.80;0.80;;;20.90;99.90;;;;;;5025653;28;20137;-69
2023/07/17 10:38:24;;;;;;;5.57;0.70;;;21.10;99.90;;;;;;5023568;28;20056;-70
2023/07/17 10:41:23;;;;;;;0.55;0.55;;;21.30;99.90;;;;;;5013126;28;20116;-71
2023/07/17 10:43:56;;;;;;;0.38;0.28;;;21.40;99.90;;;;;;5020413;28;20042;-72
2023/07/17 10:46:29;;;;;;;0.00;0.00;;;21.50;99.90;;;;;;5015643;28;20401;-71
2023/07/17 10:49:16;;;;;;;0.08;0.08;;;21.60;99.90;;;;;;5029019;28;20473;-70
2023/07/17 10:51:44;;;;;;;0.00;0.00;;;21.50;99.90;;;;;;5026446;28;20095;-70
2023/07/17 10:54:11;;;;;;;1.40;1.30;;;21.20;99.90;;;;;;5021672;28;20062;-72
2023/07/17 10:56:37;;;;;;;0.00;0.00;;;21.20;99.90;;;;;;5034240;28;20053;-71
2023/07/17 10:59:04;;;;;;;0.70;0.32;;;21.10;99.90;;;;;;5018231;28;20045;-70
2023/07/17 11:01:30;;;;;;;0.13;0.10;;;21.10;99.90;;;;;;5032284;28;20541;-71
2023/07/17 11:03:56;;;;;;;0.25;0.25;;;21.10;99.90;;;;;;5029021;28;20043;-71
2023/07/17 11:06:25;;;;;;;0.10;0.10;;;21.00;99.90;;;;;;5008638;28;20046;-71
2023/07/17 11:08:52;;;;;;;0.28;0.20;;;21.40;99.90;;;;;;5031181;28;20057;-71
2023/07/17 11:11:18;;;;;;;0.10;0.10;;;21.50;99.90;;;;;;5019542;28;20346;-70
2023/07/17 11:13:48;;;;;;;0.32;0.32;;;21.70;99.90;;;;;;5030959;28;20128;-71
2023/07/17 11:16:14;;;;;;;0.10;0.10;;;21.70;99.90;;;;;;5035637;28;20037;-71
2023/07/17 11:18:48;;;;;;;0.13;0.10;;;21.70;99.90;;;;;;5037337;28;20048;-71
2023/07/17 11:21:15;;;;;;;0.00;0.00;;;21.80;99.90;;;;;;5018271;28;20050;-69
2023/07/17 11:23:51;;;;;;;0.20;0.20;;;21.50;99.90;;;;;;5031423;28;22214;-71
2023/07/17 11:26:21;;;;;;;0.00;0.00;;;21.10;99.90;;;;;;5013817;28;20162;-70
2023/07/17 11:28:49;;;;;;;0.03;0.03;;;21.50;99.90;;;;;;5024996;28;20068;-71
2023/07/17 11:31:25;;;;;;;0.00;0.00;;;21.50;99.90;;;;;;5010873;28;20409;-70
2023/07/17 11:34:10;;;;;;;0.00;0.00;;;21.90;99.90;;;;;;5010779;28;20099;-71
2023/07/17 11:36:41;;;;;;;0.15;0.15;;;22.30;99.90;;;;;;5031293;28;20037;-71
2023/07/17 11:39:13;;;;;;;0.00;0.00;;;22.30;99.90;;;;;;5015999;28;20116;-70
2023/07/17 11:41:53;;;;;;;0.03;0.03;;;22.30;99.90;;;;;;5038278;28;20056;-69
2023/07/17 11:44:23;;;;;;;1.05;0.50;;;22.50;99.90;;;;;;5028937;28;20042;-70
2023/07/17 11:47:06;;;;;;;1.27;0.43;;;22.80;99.90;;;;;;5030407;28;20056;-69
2023/07/17 11:49:37;;;;;;;1.27;1.17;;;22.80;99.90;;;;;;5017585;28;20048;-70
2023/07/17 11:52:03;;;;;;;0.28;0.15;;;22.70;99.90;;;;;;5036907;28;20057;-70
2023/07/17 11:54:49;;;;;;;0.00;0.00;;;23.00;99.90;;;;;;5028594;28;20686;-70
2023/07/17 11:57:15;;;;;;;0.15;0.15;;;23.00;99.90;;;;;;5032599;28;20111;-70
2023/07/17 11:59:45;;;;;;;0.60;0.60;;;23.10;99.90;;;;;;5030492;28;20049;-70
2023/07/17 12:02:11;;;;;;;0.20;0.20;;;23.20;99.90;;;;;;5025734;28;20072;-70
2023/07/17 12:04:39;;;;;;;0.15;0.15;;;23.10;99.90;;;;;;5038646;28;20077;-70
2023/07/17 12:07:05;;;;;;;0.38;0.38;;;23.30;99.90;;;;;;5029995;28;20048;-70
2023/07/17 12:09:31;;;;;;;0.28;0.28;;;23.00;99.90;;;;;;5039657;28;20056;-70
2023/07/17 12:11:57;;;;;;;0.00;0.00;;;23.10;99.90;;;;;;5027488;28;20481;-70
2023/07/17 12:14:22;;;;;;;0.17;0.10;;;23.30;99.90;;;;;;5024378;28;20100;-71
2023/07/17 12:16:48;;;;;;;0.10;0.10;;;23.40;99.90;;;;;;5039245;28;20406;-71
2023/07/17 12:19:13;;;;;;;0.00;0.00;;;23.50;99.90;;;;;;5026709;28;20049;-70
2023/07/17 12:21:39;;;;;;;0.00;0.00;;;23.40;99.90;;;;;;5017055;28;20037;-70
2023/07/17 12:24:05;;;;;;;0.30;0.25;;;23.40;99.90;;;;;;5021519;28;20049;-71
2023/07/17 12:26:31;;;;;;;0.00;0.00;;;23.70;99.90;;;;;;5035842;28;20068;-71
2023/07/17 12:28:56;;;;;;;0.40;0.40;;;24.00;99.90;;;;;;5032890;28;20080;-71
2023/07/17 12:31:22;;;;;;;0.17;0.17;;;24.10;99.90;;;;;;5018611;28;20487;-70
2023/07/17 12:33:48;;;;;;;0.00;0.00;;;24.00;99.90;;;;;;5021069;28;20058;-69
2023/07/17 12:36:13;;;;;;;0.10;0.10;;;23.70;99.90;;;;;;5018191;28;20504;-70
2023/07/17 12:38:39;;;;;;;0.00;0.00;;;23.80;99.90;;;;;;5028319;28;20051;-70
2023/07/17 12:41:04;;;;;;;0.00;0.00;;;24.30;99.90;;;;;;5022775;28;20049;-70
2023/07/17 12:43:30;;;;;;;0.08;0.08;;;24.60;99.90;;;;;;5030683;28;20056;-70